Time;durP1;ratioP1;P1;durP2;ratioP2;P2;SDS_P1;SDS_P2;PMS_P1;PMS_P2;Temp;Humidity;BMP_temperature;BMP_pressure;BME280_temperature;BME280_humidity;BME280_pressure;Samples;Min_cycle;Max_cycle;Signal;HPM_P1;HPM_P2
2023/07/29 00:02:12;;;;;;;3.20;2.73;;;;;;;17.50;100.00;155858.38;5028875;28;20549;-88
2023/07/29 00:04:57;;;;;;;2.97;2.73;;;;;;;17.48;100.00;155853.16;5011855;28;20929;-88
2023/07/29 00:07:42;;;;;;;2.37;2.17;;;;;;;17.47;100.00;155850.56;5028268;28;20427;-88
2023/07/29 00:10:28;;;;;;;3.57;2.43;;;;;;;17.46;100.00;155847.94;5027859;28;20447;-88
2023/07/29 00:13:14;;;;;;;4.30;2.90;;;;;;;17.50;100.00;155858.38;5025663;28;20956;-88
2023/07/29 00:15:59;;;;;;;3.60;2.90;;;;;;;17.48;100.00;155853.16;5029976;28;20438;-88
2023/07/29 00:18:45;;;;;;;3.20;2.50;;;;;;;17.52;100.00;155864.91;5028201;28;20833;-88
2023/07/29 00:21:30;;;;;;;3.37;3.07;;;;;;;17.52;100.00;155863.59;5028902;28;20450;-88
2023/07/29 00:24:15;;;;;;;2.60;2.20;;;;;;;17.51;100.00;155860.97;5027427;28;20642;-87
2023/07/29 00:27:01;;;;;;;4.20;3.47;;;;;;;17.55;100.00;155871.47;5028953;28;20446;-87
2023/07/29 00:29:54;;;;;;;2.80;2.60;;;;;;;17.55;100.00;155872.72;5023789;28;20950;-88
2023/07/29 00:32:39;;;;;;;3.03;2.73;;;;;;;17.53;100.00;155866.22;5032483;28;20803;-88
2023/07/29 00:35:24;;;;;;;2.97;2.70;;;;;;;17.52;100.00;155864.91;5028478;28;20554;-87
2023/07/29 00:38:10;;;;;;;3.37;2.90;;;;;;;17.52;100.00;155863.59;5031183;28;21008;-87
2023/07/29 00:40:55;;;;;;;2.83;2.53;;;;;;;17.53;100.00;155866.22;5025511;28;20455;-88
2023/07/29 00:43:40;;;;;;;3.33;3.03;;;;;;;17.54;100.00;155868.84;5020586;28;20423;-87
2023/07/29 00:46:29;;;;;;;3.17;2.77;;;;;;;17.56;100.00;155874.03;5022835;28;20518;-88
2023/07/29 00:49:16;;;;;;;3.17;2.87;;;;;;;17.54;100.00;155868.84;5024636;28;20462;-88
2023/07/29 00:52:01;;;;;;;3.60;3.07;;;;;;;17.54;100.00;155868.84;5027460;28;20403;-87
2023/07/29 00:54:46;;;;;;;3.80;3.03;;;;;;;17.51;100.00;155860.97;5015385;28;20901;-88
2023/07/29 00:57:32;;;;;;;2.70;2.50;;;;;;;17.51;100.00;155862.28;5007115;28;20539;-87
2023/07/29 01:00:18;;;;;;;3.00;2.60;;;;;;;17.49;100.00;155857.09;5011017;28;20451;-88
2023/07/29 01:03:05;;;;;;;4.70;2.47;;;;;;;17.49;100.00;155855.78;5000981;28;20473;-88
2023/07/29 01:06:00;;;;;;;3.70;2.47;;;;;;;17.46;100.00;155847.94;5025656;28;20463;-87
2023/07/29 01:08:48;;;;;;;4.70;3.20;;;;;;;17.47;100.00;155851.84;5024202;28;20444;-87
2023/07/29 01:11:43;;;;;;;3.30;3.00;;;;;;;17.46;100.00;155849.25;5021208;28;20534;-88
2023/07/29 01:14:33;;;;;;;3.87;3.20;;;;;;;17.44;100.00;155844.06;5026093;28;20451;-87
2023/07/29 01:17:24;;;;;;;3.30;2.90;;;;;;;17.44;100.00;155842.75;5026121;28;20424;-87
2023/07/29 01:20:13;;;;;;;2.80;2.40;;;;;;;17.44;100.00;155842.75;5022892;28;20452;-87
2023/07/29 01:22:58;;;;;;;4.70;3.13;;;;;;;17.46;100.00;155849.25;5024527;28;21039;-87
2023/07/29 01:25:45;;;;;;;2.80;2.50;;;;;;;17.46;100.00;155847.94;5012612;28;20587;-88
2023/07/29 01:28:31;;;;;;;7.03;3.40;;;;;;;17.44;100.00;155842.75;5012418;28;20526;-88
2023/07/29 01:31:20;;;;;;;3.27;2.97;;;;;;;17.43;100.00;155840.13;5010242;28;20448;-88
2023/07/29 01:34:11;;;;;;;3.20;2.83;;;;;;;17.44;100.00;155842.75;4993490;28;20583;-88
2023/07/29 01:36:57;;;;;;;3.10;2.90;;;;;;;17.44;100.00;155844.06;5003885;28;20495;-88
2023/07/29 01:39:45;;;;;;;3.07;2.43;;;;;;;17.43;100.00;155841.44;5006954;28;20460;-88
2023/07/29 01:42:33;;;;;;;2.53;2.33;;;;;;;17.42;100.00;155838.81;5011588;28;20467;-88
2023/07/29 01:45:19;;;;;;;2.57;2.37;;;;;;;17.41;100.00;155834.94;5011708;28;20499;-88
2023/07/29 01:48:05;;;;;;;2.87;2.30;;;;;;;17.44;100.00;155844.06;5022328;28;20994;-88
2023/07/29 01:50:50;;;;;;;4.13;2.77;;;;;;;17.43;100.00;155841.44;5009189;28;21893;-88
2023/07/29 01:53:36;;;;;;;2.30;2.10;;;;;;;17.44;100.00;155842.75;5008665;28;20448;-88
2023/07/29 01:56:21;;;;;;;4.00;2.30;;;;;;;17.43;100.00;155841.44;5014014;28;20464;-88
2023/07/29 01:59:15;;;;;;;2.57;2.30;;;;;;;17.43;100.00;155841.44;5007726;28;20932;-88
2023/07/29 02:02:01;;;;;;;2.30;1.90;;;;;;;17.43;100.00;155840.13;5022911;28;20463;-88
2023/07/29 02:04:51;;;;;;;2.37;2.17;;;;;;;17.44;100.00;155844.06;5011318;28;20459;-88
2023/07/29 02:07:36;;;;;;;2.23;2.03;;;;;;;17.45;100.00;155845.34;4996575;28;20928;-88
2023/07/29 02:10:21;;;;;;;2.20;2.00;;;;;;;17.44;100.00;155844.06;5006793;28;20460;-88
2023/07/29 02:13:07;;;;;;;4.00;2.10;;;;;;;17.43;100.00;155840.13;5011477;28;21019;-88
2023/07/29 02:15:54;;;;;;;2.97;2.60;;;;;;;17.43;100.00;155840.13;5009165;28;20464;-87
2023/07/29 02:18:39;;;;;;;2.77;2.47;;;;;;;17.43;100.00;155840.13;5011269;28;20440;-89
2023/07/29 02:21:24;;;;;;;1.90;1.70;;;;;;;17.40;100.00;155832.31;5025365;28;20412;-88
2023/07/29 02:24:09;;;;;;;2.20;2.00;;;;;;;17.39;100.00;155829.75;5012141;28;20935;-87
2023/07/29 02:26:55;;;;;;;3.13;1.97;;;;;;;17.36;100.00;155821.94;5012707;28;20448;-88
2023/07/29 02:29:40;;;;;;;2.20;2.00;;;;;;;17.33;100.00;155815.44;5018120;28;20456;-88
2023/07/29 02:32:27;;;;;;;2.40;2.20;;;;;;;17.34;100.00;155818.00;5010998;28;20416;-87
2023/07/29 02:35:13;;;;;;;2.90;2.30;;;;;;;17.32;100.00;155811.50;5006234;28;20460;-87
2023/07/29 02:37:58;;;;;;;2.17;1.87;;;;;;;17.32;100.00;155811.50;5016160;28;20487;-88
2023/07/29 02:40:43;;;;;;;3.30;2.70;;;;;;;17.31;100.00;155810.22;4994162;28;20456;-88
2023/07/29 02:43:29;;;;;;;3.53;2.30;;;;;;;17.33;100.00;155814.13;5004174;28;20463;-88
2023/07/29 02:46:14;;;;;;;2.53;2.23;;;;;;;17.32;100.00;155812.81;5010180;28;20540;-88
2023/07/29 02:49:03;;;;;;;2.47;2.27;;;;;;;17.34;100.00;155816.72;5010284;28;20447;-88
2023/07/29 02:51:49;;;;;;;3.40;2.20;;;;;;;17.33;100.00;155815.44;5005955;28;20456;-88
2023/07/29 02:54:34;;;;;;;2.40;2.00;;;;;;;17.32;100.00;155812.81;5007249;28;20574;-88
2023/07/29 02:57:19;;;;;;;2.43;1.80;;;;;;;17.32;100.00;155812.81;5010072;28;20556;-88
2023/07/29 03:00:07;;;;;;;3.03;2.20;;;;;;;17.33;100.00;155814.13;5009740;28;20905;-88
2023/07/29 03:02:52;;;;;;;3.07;2.20;;;;;;;17.33;100.00;155815.44;5019202;28;20468;-88
2023/07/29 03:05:39;;;;;;;2.47;2.27;;;;;;;17.34;100.00;155818.00;5010285;28;20472;-88
2023/07/29 03:08:25;;;;;;;3.90;2.33;;;;;;;17.34;100.00;155818.00;5022862;28;20420;-88
2023/07/29 03:11:11;;;;;;;4.90;2.70;;;;;;;17.35;100.00;155819.31;5019212;28;20447;-88
2023/07/29 03:13:57;;;;;;;2.13;1.80;;;;;;;17.35;100.00;155820.63;5002983;28;20445;-88
2023/07/29 03:16:42;;;;;;;2.93;2.20;;;;;;;17.31;100.00;155810.22;4992862;28;20437;-88
2023/07/29 03:19:27;;;;;;;2.17;1.97;;;;;;;17.30;100.00;155807.63;5018013;28;20464;-88
2023/07/29 03:22:14;;;;;;;2.00;1.70;;;;;;;17.31;100.00;155808.91;5004378;28;20822;-88
2023/07/29 03:25:00;;;;;;;1.97;1.77;;;;;;;17.32;100.00;155811.50;5008895;28;20439;-88
2023/07/29 03:27:45;;;;;;;2.37;2.10;;;;;;;17.30;100.00;155806.28;5004718;28;20433;-88
2023/07/29 03:30:30;;;;;;;2.30;1.90;;;;;;;17.29;100.00;155805.00;5008224;28;20459;-88
2023/07/29 03:33:15;;;;;;;2.57;2.37;;;;;;;17.28;100.00;155801.09;5021874;28;20780;-88
2023/07/29 03:36:01;;;;;;;2.80;2.30;;;;;;;17.29;100.00;155803.72;5022815;28;20462;-88
2023/07/29 03:38:48;;;;;;;2.63;2.00;;;;;;;17.29;100.00;155805.00;5017739;28;20498;-88
2023/07/29 03:41:33;;;;;;;2.83;2.30;;;;;;;17.29;100.00;155805.00;5021718;28;20981;-88
2023/07/29 03:44:19;;;;;;;2.97;2.67;;;;;;;17.29;100.00;155803.72;5008221;28;20535;-88
2023/07/29 03:47:05;;;;;;;2.73;2.50;;;;;;;17.28;100.00;155801.09;5003089;28;20455;-88
2023/07/29 03:49:50;;;;;;;2.50;2.30;;;;;;;17.29;100.00;155805.00;5020325;28;20558;-88
2023/07/29 03:52:38;;;;;;;2.60;2.27;;;;;;;17.29;100.00;155803.72;4988738;28;20867;-88
2023/07/29 03:55:25;;;;;;;2.90;2.40;;;;;;;17.29;100.00;155803.72;4996058;28;20533;-88
2023/07/29 03:58:10;;;;;;;2.37;1.93;;;;;;;17.29;100.00;155805.00;5010938;28;20448;-88
2023/07/29 04:00:56;;;;;;;2.33;1.93;;;;;;;17.31;100.00;155808.91;5006547;28;20456;-88
2023/07/29 04:03:42;;;;;;;2.33;2.13;;;;;;;17.32;100.00;155811.50;5005067;28;20467;-88
2023/07/29 04:06:27;;;;;;;2.80;2.50;;;;;;;17.33;100.00;155815.44;5018333;28;21008;-88
2023/07/29 04:09:13;;;;;;;3.10;1.83;;;;;;;17.32;100.00;155811.50;5005097;28;20468;-88
2023/07/29 04:12:00;;;;;;;2.27;2.00;;;;;;;17.33;100.00;155815.44;5021658;28;20467;-88
2023/07/29 04:14:45;;;;;;;2.50;2.07;;;;;;;17.36;100.00;155821.94;5010467;28;20440;-88
2023/07/29 04:17:31;;;;;;;4.90;2.20;;;;;;;17.37;100.00;155824.50;5008795;28;20440;-87
2023/07/29 04:20:16;;;;;;;3.90;2.60;;;;;;;17.36;100.00;155821.94;5020497;28;20977;-90
2023/07/29 04:23:01;;;;;;;3.03;2.37;;;;;;;17.35;100.00;155820.63;5010691;28;20459;-90
2023/07/29 04:25:46;;;;;;;2.17;1.87;;;;;;;17.36;100.00;155821.94;5014023;28;20466;-89
2023/07/29 04:28:33;;;;;;;3.57;2.50;;;;;;;17.35;100.00;155820.63;5005256;28;20456;-89
2023/07/29 04:31:18;;;;;;;3.13;2.40;;;;;;;17.36;100.00;155823.25;5022878;28;20572;-87
2023/07/29 04:34:03;;;;;;;3.20;2.40;;;;;;;17.36;100.00;155821.94;5022435;28;20444;-88
2023/07/29 04:36:49;;;;;;;3.50;2.20;;;;;;;17.37;100.00;155824.50;5009008;28;20464;-88
2023/07/29 04:39:35;;;;;;;2.70;2.50;;;;;;;17.34;100.00;155818.00;5008022;28;20451;-88
2023/07/29 04:42:20;;;;;;;3.37;2.30;;;;;;;17.34;100.00;155818.00;5017577;28;20927;-87
2023/07/29 04:45:10;;;;;;;3.50;2.73;;;;;;;17.34;100.00;155816.72;5008473;28;20795;-87
2023/07/29 04:47:55;;;;;;;2.80;2.47;;;;;;;17.34;100.00;155816.72;5008629;28;20792;-87
2023/07/29 04:50:41;;;;;;;4.90;2.80;;;;;;;17.34;100.00;155816.72;5009931;28;20448;-87
2023/07/29 04:53:26;;;;;;;4.10;2.80;;;;;;;17.34;100.00;155818.00;5012505;28;20950;-87
2023/07/29 04:56:11;;;;;;;4.20;3.13;;;;;;;17.35;100.00;155819.31;5005043;28;20452;-86
2023/07/29 04:58:56;;;;;;;3.97;2.60;;;;;;;17.35;100.00;155820.63;5007845;28;20945;-87
2023/07/29 05:01:43;;;;;;;5.03;3.00;;;;;;;17.37;100.00;155824.50;5004285;28;20460;-86
2023/07/29 05:04:28;;;;;;;3.43;2.53;;;;;;;17.36;100.00;155821.94;5018442;28;21090;-87
2023/07/29 05:07:13;;;;;;;2.53;2.30;;;;;;;17.35;100.00;155820.63;5005061;28;20459;-86
2023/07/29 05:09:59;;;;;;;3.80;2.77;;;;;;;17.36;100.00;155823.25;5003427;28;20447;-86
2023/07/29 05:12:44;;;;;;;4.27;2.80;;;;;;;17.37;100.00;155824.50;5005457;28;20916;-87
2023/07/29 05:15:44;;;;;;;2.93;2.47;;;;;;;17.36;100.00;155823.25;5019965;28;20491;-87
2023/07/29 05:18:31;;;;;;;3.83;2.70;;;;;;;17.37;100.00;155824.50;5007484;28;20452;-87
2023/07/29 05:21:16;;;;;;;3.27;2.97;;;;;;;17.37;100.00;155824.50;5005316;28;20448;-86
2023/07/29 05:24:01;;;;;;;3.30;3.00;;;;;;;17.38;100.00;155827.13;5005751;28;20467;-87
2023/07/29 05:26:47;;;;;;;3.33;3.00;;;;;;;17.41;100.00;155834.94;5018572;28;20460;-87
2023/07/29 05:29:32;;;;;;;3.17;2.87;;;;;;;17.41;100.00;155836.25;5006151;28;20525;-87
2023/07/29 05:32:17;;;;;;;3.33;3.03;;;;;;;17.43;100.00;155841.44;5018086;28;20443;-87
2023/07/29 05:35:05;;;;;;;3.60;3.30;;;;;;;17.44;100.00;155844.06;5003299;28;20444;-86
2023/07/29 05:37:51;;;;;;;3.60;2.80;;;;;;;17.44;100.00;155844.06;4998561;28;20813;-87
2023/07/29 05:40:36;;;;;;;3.30;2.70;;;;;;;17.46;100.00;155849.25;5017371;28;20447;-87
2023/07/29 05:43:21;;;;;;;3.37;3.07;;;;;;;17.50;100.00;155858.38;5005690;28;21014;-87
2023/07/29 05:46:07;;;;;;;6.93;3.13;;;;;;;17.53;100.00;155866.22;5006067;28;20574;-86
2023/07/29 05:48:52;;;;;;;5.60;3.30;;;;;;;17.57;100.00;155876.66;5023315;28;20515;-87
2023/07/29 05:51:38;;;;;;;3.60;3.20;;;;;;;17.63;100.00;155892.28;5021015;28;20456;-87
2023/07/29 05:54:24;;;;;;;4.13;3.40;;;;;;;17.70;100.00;155909.19;5017585;28;20650;-87
2023/07/29 05:57:10;;;;;;;3.90;3.40;;;;;;;17.76;100.00;155926.13;5022911;28;20539;-87
2023/07/29 05:59:56;;;;;;;4.50;2.90;;;;;;;17.83;100.00;155944.34;5034578;28;20466;-88
2023/07/29 06:02:41;;;;;;;4.37;3.30;;;;;;;17.88;100.00;155956.03;5038305;28;20446;-88
2023/07/29 06:05:29;;;;;;;4.77;3.80;;;;;;;17.92;100.00;155966.50;5020302;28;20455;-88
2023/07/29 06:08:16;;;;;;;3.90;3.40;;;;;;;17.99;100.00;155986.00;5023567;28;20933;-88
2023/07/29 06:11:01;;;;;;;3.53;3.23;;;;;;;18.13;100.00;156022.50;5033242;28;20790;-89
2023/07/29 06:13:48;;;;;;;3.77;3.23;;;;;;;18.25;100.00;156052.41;5037110;28;20478;-90
2023/07/29 06:16:33;;;;;;;4.70;3.50;;;;;;;18.39;100.00;156088.88;5018174;28;20447;-89
2023/07/29 06:19:19;;;;;;;4.23;3.07;;;;;;;18.51;100.00;156120.19;5036323;28;20438;-89
2023/07/29 06:22:05;;;;;;;3.40;3.10;;;;;;;18.70;100.00;156168.38;5022660;28;20536;-91
2023/07/29 06:24:52;;;;;;;4.20;3.00;;;;;;;19.01;100.00;156249.16;5033688;28;20477;-91
2023/07/29 06:27:42;;;;;;;3.30;3.00;;;;;;;19.23;100.00;156306.53;5037292;28;20474;-78
2023/07/29 06:30:27;;;;;;;5.80;2.53;;;;;;;19.24;100.00;156307.84;5036525;28;20517;-78
2023/07/29 06:33:13;;;;;;;3.80;2.50;;;;;;;19.28;100.00;156319.53;5033269;28;20569;-78
2023/07/29 06:35:58;;;;;;;3.83;2.80;;;;;;;19.30;100.00;156324.75;5034405;28;20458;-78
2023/07/29 06:38:43;;;;;;;3.43;2.50;;;;;;;19.31;100.00;156327.38;5021159;28;20451;-78
2023/07/29 06:41:30;;;;;;;3.67;2.40;;;;;;;19.32;100.00;156330.00;5031197;28;20491;-78
2023/07/29 06:44:17;;;;;;;3.03;2.73;;;;;;;19.27;100.00;156316.91;5032503;28;20471;-78
2023/07/29 06:47:03;;;;;;;3.27;2.50;;;;;;;19.22;100.00;156303.88;5037442;28;21020;-78
2023/07/29 06:49:48;;;;;;;2.50;2.30;;;;;;;19.19;100.00;156294.81;5035311;28;20794;-78
2023/07/29 06:52:33;;;;;;;2.03;1.83;;;;;;;19.11;100.00;156275.25;5013573;28;20528;-79
2023/07/29 06:55:19;;;;;;;3.37;2.60;;;;;;;19.08;100.00;156266.13;5036339;28;21075;-79
2023/07/29 06:58:05;;;;;;;3.67;2.47;;;;;;;19.01;100.00;156247.91;5037515;28;20447;-79
2023/07/29 07:00:51;;;;;;;3.23;2.93;;;;;;;18.96;100.00;156236.13;5030858;28;20576;-79
2023/07/29 07:03:39;;;;;;;2.97;2.60;;;;;;;18.93;100.00;156228.31;5030901;28;20471;-79
2023/07/29 07:06:24;;;;;;;4.30;3.03;;;;;;;18.88;100.00;156215.28;5034250;28;21473;-79
2023/07/29 07:09:10;;;;;;;6.40;2.57;;;;;;;18.82;100.00;156199.69;5031990;28;20469;-79
2023/07/29 07:11:55;;;;;;;5.30;2.90;;;;;;;18.80;100.00;156194.44;5018380;28;20471;-79
2023/07/29 07:14:41;;;;;;;5.73;3.40;;;;;;;18.78;100.00;156189.22;5035629;28;20466;-87
2023/07/29 07:17:27;;;;;;;2.53;2.23;;;;;;;18.72;100.00;156173.59;5034672;28;20524;-87
2023/07/29 07:20:12;;;;;;;3.00;2.40;;;;;;;18.70;100.00;156168.38;5034855;28;20455;-88
2023/07/29 07:22:58;;;;;;;2.53;2.13;;;;;;;18.67;100.00;156160.56;5033685;28;20458;-86
2023/07/29 07:25:43;;;;;;;2.43;2.23;;;;;;;18.62;100.00;156147.53;5036277;28;20449;-86
2023/07/29 07:28:29;;;;;;;3.23;2.67;;;;;;;18.61;100.00;156146.22;5031409;28;20810;-87
2023/07/29 07:31:16;;;;;;;2.70;2.50;;;;;;;18.61;100.00;156146.22;5035509;28;20459;-87
2023/07/29 07:34:06;;;;;;;3.37;2.73;;;;;;;18.55;100.00;156130.63;5036172;28;20952;-79
2023/07/29 07:36:51;;;;;;;5.13;2.47;;;;;;;18.55;100.00;156129.31;5034293;28;20447;-79
2023/07/29 07:39:37;;;;;;;4.50;2.90;;;;;;;18.55;100.00;156129.31;5036593;28;20471;-78
2023/07/29 07:42:22;;;;;;;2.80;2.30;;;;;;;18.58;100.00;156137.13;5035252;28;20493;-78
2023/07/29 07:45:07;;;;;;;3.60;2.77;;;;;;;18.60;100.00;156143.66;5039244;28;20549;-79
2023/07/29 07:47:54;;;;;;;2.83;2.40;;;;;;;18.62;100.00;156147.53;5037797;28;20591;-79
2023/07/29 07:50:39;;;;;;;2.20;2.00;;;;;;;18.64;100.00;156154.06;5031753;28;20568;-79
2023/07/29 07:53:26;;;;;;;3.70;2.77;;;;;;;18.65;100.00;156155.38;5032811;28;20497;-79
2023/07/29 07:56:11;;;;;;;2.20;1.93;;;;;;;18.64;100.00;156152.75;5018056;28;20447;-79
2023/07/29 07:58:57;;;;;;;3.40;2.40;;;;;;;18.69;100.00;156167.06;5024944;28;20590;-79
2023/07/29 08:01:42;;;;;;;3.37;2.70;;;;;;;18.76;100.00;156184.03;5023533;28;20471;-79
2023/07/29 08:04:29;;;;;;;3.33;2.43;;;;;;;18.80;100.00;156194.44;5026646;28;20475;-79
2023/07/29 08:07:14;;;;;;;2.57;1.93;;;;;;;18.86;100.00;156210.09;5023478;28;20471;-78
2023/07/29 08:10:00;;;;;;;3.10;1.93;;;;;;;18.86;100.00;156210.09;5022296;28;20443;-79
2023/07/29 08:12:45;;;;;;;4.10;1.83;;;;;;;18.92;100.00;156225.72;5022593;28;20458;-79
2023/07/29 08:15:30;;;;;;;4.33;1.83;;;;;;;19.00;100.00;156245.28;5023950;28;20513;-79
2023/07/29 08:18:16;;;;;;;2.20;1.97;;;;;;;19.18;100.00;156292.19;5025556;28;20455;-78
2023/07/29 08:21:03;;;;;;;2.10;1.70;;;;;;;19.28;100.00;156319.53;5021946;28;20965;-79
2023/07/29 08:23:51;;;;;;;1.93;1.70;;;;;;;19.34;100.00;156333.88;5022709;28;20581;-79
2023/07/29 08:26:36;;;;;;;2.73;1.77;;;;;;;19.40;100.00;156349.59;5023250;28;20962;-79
2023/07/29 08:29:21;;;;;;;2.13;1.80;;;;;;;19.46;100.00;156365.19;5024778;28;21066;-79
2023/07/29 08:32:07;;;;;;;3.13;2.07;;;;;;;19.53;100.00;156382.16;5024989;28;20834;-79
2023/07/29 08:34:52;;;;;;;2.43;2.20;;;;;;;19.58;100.00;156395.19;5009713;28;20810;-79
2023/07/29 08:37:38;;;;;;;2.80;2.30;;;;;;;19.65;100.00;156413.44;5024388;28;20447;-79
2023/07/29 08:40:28;;;;;;;2.87;1.93;;;;;;;19.75;100.00;156439.56;5024532;28;21073;-79
2023/07/29 08:43:15;;;;;;;3.73;2.20;;;;;;;19.80;100.00;156453.84;5029850;28;20463;-78
2023/07/29 08:46:01;;;;;;;3.90;2.70;;;;;;;19.89;100.00;156476.03;5023845;28;20438;-78
2023/07/29 08:48:49;;;;;;;4.10;2.70;;;;;;;19.97;100.00;156496.88;5025034;28;20455;-78
2023/07/29 08:51:37;;;;;;;3.03;2.40;;;;;;;20.10;100.00;156530.78;5025351;28;20582;-78
2023/07/29 08:54:24;;;;;;;2.60;2.40;;;;;;;20.24;100.00;156567.38;5010726;28;20471;-79
2023/07/29 08:57:09;;;;;;;3.20;2.40;;;;;;;20.43;100.00;156615.63;5008786;28;20444;-79
2023/07/29 08:59:56;;;;;;;2.60;2.40;;;;;;;20.63;100.00;156669.09;5004846;28;20456;-78
2023/07/29 09:02:41;;;;;;;6.27;2.87;;;;;;;20.88;100.00;156733.06;5004894;28;20447;-79
2023/07/29 09:05:26;;;;;;;3.80;2.67;;;;;;;21.22;100.00;156820.53;5003472;28;20907;-79
2023/07/29 09:08:12;;;;;;;2.93;2.40;;;;;;;21.31;100.00;156844.03;5004794;28;20455;-79
2023/07/29 09:10:58;;;;;;;3.10;2.80;;;;;;;21.33;100.00;156849.25;5005787;28;20444;-79
2023/07/29 09:13:44;;;;;;;2.70;2.50;;;;;;;21.30;100.00;156841.41;5006765;28;20542;-79
2023/07/29 09:16:30;;;;;;;2.33;2.03;;;;;;;21.25;100.00;156828.34;5006607;28;20465;-79
2023/07/29 09:19:15;;;;;;;3.17;2.70;;;;;;;21.27;100.00;156833.56;5005690;28;20800;-79
2023/07/29 09:22:01;;;;;;;3.13;2.50;;;;;;;21.30;100.00;156841.41;5010356;28;20546;-79
2023/07/29 09:24:46;;;;;;;3.90;2.50;;;;;;;21.41;100.00;156868.81;5007276;28;20503;-79
2023/07/29 09:27:38;;;;;;;2.97;2.60;;;;;;;21.50;100.00;156893.59;5015445;28;20452;-79
2023/07/29 09:30:23;;;;;;;3.00;2.40;;;;;;;21.58;100.00;156914.47;5009712;28;20932;-79
2023/07/29 09:33:09;;;;;;;2.90;2.17;;;;;;;21.68;100.00;156940.59;5009001;28;20452;-79
2023/07/29 09:35:54;;;;;;;2.83;2.07;;;;;;;21.70;100.00;156945.84;5001807;28;20439;-79
2023/07/29 09:38:39;;;;;;;2.80;2.20;;;;;;;21.71;100.00;156947.16;5005471;28;20456;-79
2023/07/29 09:41:26;;;;;;;3.77;1.67;;;;;;;21.69;100.00;156943.22;5007982;28;20498;-79
2023/07/29 09:44:13;;;;;;;2.50;1.87;;;;;;;21.74;100.00;156956.25;5008394;28;20504;-79
2023/07/29 09:46:58;;;;;;;2.67;2.00;;;;;;;21.76;100.00;156961.47;5008473;28;20561;-79
2023/07/29 09:49:43;;;;;;;1.77;1.63;;;;;;;21.82;100.00;156977.16;5009185;28;21100;-78
2023/07/29 09:52:29;;;;;;;2.07;1.73;;;;;;;21.85;100.00;156985.00;5007840;28;20440;-79
2023/07/29 09:55:14;;;;;;;2.00;1.67;;;;;;;21.88;100.00;156990.25;5026777;28;20462;-79
2023/07/29 09:58:03;;;;;;;2.10;1.70;;;;;;;21.83;100.00;156979.78;5034080;28;20450;-79
2023/07/29 10:00:50;;;;;;;1.90;1.60;;;;;;;21.83;100.00;156979.78;5036648;28;20456;-79
2023/07/29 10:03:36;;;;;;;2.17;1.93;;;;;;;22.08;100.00;157043.78;5035345;28;20486;-78
2023/07/29 10:06:22;;;;;;;1.97;1.73;;;;;;;22.40;100.00;157126.06;5035779;28;20524;-78
2023/07/29 10:09:07;;;;;;;2.87;2.00;;;;;;;22.57;100.00;157170.50;5034857;28;20463;-78
2023/07/29 10:12:00;;;;;;;2.40;2.10;;;;;;;22.70;100.00;157204.50;5031026;28;20508;-78
2023/07/29 10:14:47;;;;;;;2.33;2.13;;;;;;;22.79;100.00;157228.06;5021862;28;20455;-79
2023/07/29 10:17:41;;;;;;;2.33;2.00;;;;;;;22.77;100.00;157222.78;5037635;28;20960;-78
2023/07/29 10:20:26;;;;;;;2.60;2.40;;;;;;;22.92;100.00;157262.03;5036205;28;20450;-77
2023/07/29 10:23:12;;;;;;;2.87;2.07;;;;;;;23.02;100.00;157286.81;5038036;28;20545;-78
2023/07/29 10:26:02;;;;;;;3.23;2.40;;;;;;;23.19;100.00;157331.28;5029580;28;20463;-77
2023/07/29 10:28:48;;;;;;;2.57;2.37;;;;;;;23.42;100.00;157390.13;5034002;28;20493;-77
2023/07/29 10:31:33;;;;;;;3.37;2.00;;;;;;;23.63;100.00;157445.03;5034967;28;20522;-77
2023/07/29 10:34:21;;;;;;;3.00;2.17;;;;;;;23.85;100.00;157502.56;5035007;28;20446;-77
2023/07/29 10:37:07;;;;;;;2.60;2.40;;;;;;;24.00;100.00;157541.78;5036141;28;20430;-78
2023/07/29 10:39:56;;;;;;;2.80;2.50;;;;;;;24.13;96.51;157574.50;5036151;28;20478;-78
2023/07/29 10:43:01;;;;;;;5.03;1.97;;;;;;;24.27;90.99;157609.81;5027304;28;20587;-77
2023/07/29 10:45:46;;;;;;;2.50;2.13;;;;;;;24.38;93.51;157638.59;5037081;28;20553;-77
2023/07/29 10:48:41;;;;;;;2.00;1.70;;;;;;;24.46;90.45;157659.53;5035880;28;20470;-77
2023/07/29 10:51:33;;;;;;;2.80;1.70;;;;;;;24.41;86.31;157646.47;5036372;28;20544;-77
2023/07/29 10:54:18;;;;;;;2.10;1.63;;;;;;;24.36;86.54;157633.38;5028228;28;20484;-78
2023/07/29 10:57:04;;;;;;;2.33;1.90;;;;;;;24.39;88.55;157641.19;5006702;28;20435;-77
2023/07/29 10:59:56;;;;;;;2.17;1.80;;;;;;;24.43;86.33;157651.69;5019013;28;20607;-77
2023/07/29 11:02:41;;;;;;;3.33;1.80;;;;;;;24.40;87.80;157643.81;5007668;28;20746;-77
2023/07/29 11:05:46;;;;;;;2.20;1.80;;;;;;;24.40;89.52;157643.81;5007904;28;20463;-77
2023/07/29 11:08:33;;;;;;;2.03;1.60;;;;;;;24.34;88.42;157629.44;5007346;28;20479;-77
2023/07/29 11:11:19;;;;;;;2.87;1.80;;;;;;;24.38;90.17;157638.59;5020338;28;20519;-77
2023/07/29 11:14:05;;;;;;;2.23;1.70;;;;;;;24.43;90.15;157651.69;5006606;28;20990;-77
2023/07/29 11:16:51;;;;;;;2.00;1.60;;;;;;;24.53;91.49;157679.16;5007210;28;20749;-77
2023/07/29 11:19:36;;;;;;;2.40;1.70;;;;;;;24.40;92.86;157643.81;5007976;28;20518;-77
2023/07/29 11:22:22;;;;;;;3.93;1.90;;;;;;;24.36;94.83;157633.38;5006090;28;20921;-77
2023/07/29 11:25:11;;;;;;;2.53;1.80;;;;;;;24.28;92.21;157613.72;5006125;28;20455;-77
2023/07/29 11:27:57;;;;;;;2.13;1.70;;;;;;;24.25;91.11;157605.91;5007453;28;20455;-77
2023/07/29 11:30:42;;;;;;;2.07;1.60;;;;;;;24.31;94.58;157621.56;5001445;28;20498;-77
2023/07/29 11:33:28;;;;;;;2.50;1.87;;;;;;;24.32;94.18;157622.88;5000235;28;20800;-77
2023/07/29 11:36:20;;;;;;;2.57;2.27;;;;;;;24.31;93.61;157620.25;5007061;28;20935;-77
2023/07/29 11:39:11;;;;;;;2.10;1.80;;;;;;;24.25;93.29;157604.59;5006104;28;20464;-77
2023/07/29 11:41:58;;;;;;;2.37;1.73;;;;;;;24.28;87.31;157612.44;5006453;28;20942;-77
2023/07/29 11:44:43;;;;;;;2.73;2.27;;;;;;;24.35;88.86;157630.75;5007311;28;20522;-78
2023/07/29 11:47:29;;;;;;;2.57;2.37;;;;;;;24.30;89.51;157619.00;5019658;28;20527;-78
2023/07/29 11:50:15;;;;;;;2.03;1.83;;;;;;;24.28;83.36;157612.44;5007223;28;20444;-78
2023/07/29 11:53:01;;;;;;;2.80;2.00;;;;;;;24.38;85.83;157638.59;5004363;28;20953;-78
2023/07/29 11:55:51;;;;;;;2.67;1.70;;;;;;;24.37;85.17;157635.97;5024564;28;21162;-78
2023/07/29 11:58:38;;;;;;;2.27;1.80;;;;;;;24.39;88.50;157641.19;5034124;28;21019;-78
2023/07/29 12:01:23;;;;;;;2.30;2.00;;;;;;;24.34;86.06;157628.13;5030615;28;20983;-78
2023/07/29 12:04:08;;;;;;;2.10;1.90;;;;;;;24.48;86.00;157664.75;5028793;28;20496;-78
2023/07/29 12:06:54;;;;;;;2.50;1.97;;;;;;;24.58;83.35;157692.22;5034412;28;20439;-78
2023/07/29 12:09:40;;;;;;;2.30;2.10;;;;;;;24.58;80.83;157690.91;5036460;28;20478;-78
2023/07/29 12:12:25;;;;;;;2.77;2.17;;;;;;;24.60;78.77;157696.13;5028157;28;21118;-78
2023/07/29 12:15:12;;;;;;;1.97;1.63;;;;;;;24.60;78.75;157696.13;5019103;28;20439;-78
2023/07/29 12:18:00;;;;;;;2.53;2.00;;;;;;;24.62;81.03;157701.38;5035181;28;20467;-78
2023/07/29 12:20:45;;;;;;;2.60;2.00;;;;;;;24.60;79.01;157696.13;5035170;28;20446;-78
2023/07/29 12:23:31;;;;;;;2.93;2.10;;;;;;;24.68;79.39;157718.38;5035493;28;20463;-78
2023/07/29 12:26:20;;;;;;;2.60;1.93;;;;;;;24.73;81.50;157731.44;5035009;28;20968;-78
2023/07/29 12:29:13;;;;;;;2.10;1.90;;;;;;;24.80;82.88;157748.53;5036265;28;20578;-78
2023/07/29 12:32:03;;;;;;;2.73;2.07;;;;;;;24.86;81.91;157762.94;5029278;28;20439;-78
2023/07/29 12:34:49;;;;;;;2.50;2.30;;;;;;;24.83;79.53;157756.38;5021820;28;20453;-78
2023/07/29 12:37:34;;;;;;;2.57;1.93;;;;;;;24.77;76.89;157741.94;5029043;28;20434;-78
2023/07/29 12:40:23;;;;;;;2.53;2.27;;;;;;;24.88;83.86;157769.47;5025171;28;20451;-78
2023/07/29 12:43:09;;;;;;;3.27;2.10;;;;;;;24.79;78.36;157745.88;5024835;28;20447;-78
2023/07/29 12:45:55;;;;;;;2.07;1.87;;;;;;;24.78;77.12;157744.56;5033620;28;20833;-78
2023/07/29 12:48:41;;;;;;;2.10;1.87;;;;;;;24.84;80.78;157758.97;5033101;28;20940;-78